Time;durP1;ratioP1;P1;durP2;ratioP2;P2;SDS_P1;SDS_P2;PMS_P1;PMS_P2;Temp;Humidity;BMP_temperature;BMP_pressure;BME280_temperature;BME280_humidity;BME280_pressure;Samples;Min_cycle;Max_cycle;Signal;HPM_P1;HPM_P2
2023/09/22 00:01:22;;;;;;;6.37;1.30;;;16.60;99.90;;;;;;4996515;28;20421;-86
2023/09/22 00:04:11;;;;;;;3.30;1.10;;;16.70;99.90;;;;;;4999490;28;20924;-86
2023/09/22 00:06:56;;;;;;;2.67;1.10;;;16.80;99.90;;;;;;5004800;28;20508;-86
2023/09/22 00:09:42;;;;;;;5.03;1.07;;;16.70;99.90;;;;;;4996060;28;20574;-87
2023/09/22 00:12:31;;;;;;;2.20;1.23;;;16.70;99.90;;;;;;4996045;28;20442;-86
2023/09/22 00:15:17;;;;;;;2.40;1.20;;;16.50;99.90;;;;;;4997104;28;20425;-86
2023/09/22 00:18:02;;;;;;;3.00;1.10;;;16.50;99.90;;;;;;4997330;28;20451;-86
2023/09/22 00:20:48;;;;;;;1.80;0.90;;;16.50;99.90;;;;;;5001521;28;20446;-86
2023/09/22 00:23:34;;;;;;;2.60;1.60;;;16.50;99.90;;;;;;4991395;28;20566;-86
2023/09/22 00:26:20;;;;;;;3.17;1.50;;;16.60;99.90;;;;;;4992416;28;20453;-87
2023/09/22 00:29:07;;;;;;;2.33;1.20;;;16.60;99.90;;;;;;5003884;28;20560;-86
2023/09/22 00:31:53;;;;;;;2.47;1.20;;;16.50;99.90;;;;;;5000956;28;20540;-86
2023/09/22 00:34:39;;;;;;;2.43;1.20;;;16.60;99.90;;;;;;4994600;28;20436;-86
2023/09/22 00:37:24;;;;;;;2.60;1.13;;;16.50;99.90;;;;;;4994678;28;20448;-86
2023/09/22 00:40:12;;;;;;;2.67;1.10;;;16.50;99.90;;;;;;4996412;28;20479;-86
2023/09/22 00:43:09;;;;;;;3.23;1.10;;;16.30;99.90;;;;;;4993748;28;20420;-86
2023/09/22 00:45:56;;;;;;;3.00;1.20;;;16.30;99.90;;;;;;4998255;28;20468;-86
2023/09/22 00:48:42;;;;;;;10.40;1.67;;;16.40;99.90;;;;;;4994712;28;21115;-86
2023/09/22 00:51:28;;;;;;;3.20;1.00;;;16.40;99.90;;;;;;5002247;28;21127;-86
2023/09/22 00:54:14;;;;;;;3.67;1.80;;;16.30;99.90;;;;;;4993776;28;20482;-86
2023/09/22 00:57:01;;;;;;;8.93;1.00;;;16.30;99.90;;;;;;4997994;28;21142;-86
2023/09/22 00:59:48;;;;;;;2.13;0.93;;;16.30;99.90;;;;;;5000233;28;20461;-86
2023/09/22 01:02:36;;;;;;;2.90;1.33;;;16.20;99.90;;;;;;4991995;28;20961;-86
2023/09/22 01:05:21;;;;;;;1.73;1.00;;;16.20;99.90;;;;;;5002308;28;20980;-86
2023/09/22 01:08:07;;;;;;;1.87;1.23;;;16.10;99.90;;;;;;4995974;28;20450;-86
2023/09/22 01:10:52;;;;;;;4.27;0.97;;;16.20;99.90;;;;;;5000421;28;20476;-86
2023/09/22 01:13:38;;;;;;;1.77;1.00;;;16.30;99.90;;;;;;4997064;28;20941;-86
2023/09/22 01:16:24;;;;;;;3.37;0.93;;;16.30;99.90;;;;;;4992298;28;20804;-86
2023/09/22 01:19:16;;;;;;;3.10;1.13;;;16.20;99.90;;;;;;4990929;28;21017;-86
2023/09/22 01:22:05;;;;;;;3.07;1.40;;;16.20;99.90;;;;;;4997596;28;20451;-85
2023/09/22 01:24:50;;;;;;;2.37;1.00;;;16.20;99.90;;;;;;4988343;28;20425;-87
2023/09/22 01:27:36;;;;;;;2.10;1.13;;;16.20;99.90;;;;;;4992716;28;20428;-86
2023/09/22 01:30:22;;;;;;;1.90;0.87;;;16.20;99.90;;;;;;5003231;28;20588;-86
2023/09/22 01:33:08;;;;;;;2.00;0.90;;;16.20;99.90;;;;;;4985098;28;20445;-86
2023/09/22 01:35:54;;;;;;;5.17;2.50;;;16.30;99.90;;;;;;4992817;28;20803;-86
2023/09/22 01:38:41;;;;;;;2.90;1.30;;;16.20;99.90;;;;;;4999309;28;20854;-86
2023/09/22 01:41:27;;;;;;;2.10;1.10;;;16.10;99.90;;;;;;4995540;28;20442;-86
2023/09/22 01:44:13;;;;;;;9.00;1.10;;;16.20;99.90;;;;;;4992121;28;20529;-86
2023/09/22 01:46:58;;;;;;;3.30;0.90;;;16.10;99.90;;;;;;4998484;28;20457;-86
2023/09/22 01:49:44;;;;;;;3.13;1.00;;;16.10;99.90;;;;;;4999966;28;20445;-86
2023/09/22 01:52:30;;;;;;;2.47;1.20;;;16.10;99.90;;;;;;4997477;28;20524;-86
2023/09/22 01:55:17;;;;;;;4.57;1.00;;;16.00;99.90;;;;;;4995640;28;20436;-85
2023/09/22 01:58:04;;;;;;;2.67;0.97;;;16.00;99.90;;;;;;4993750;28;20825;-86
2023/09/22 02:00:50;;;;;;;2.13;1.10;;;16.00;99.90;;;;;;4989709;28;20447;-86
2023/09/22 02:03:35;;;;;;;2.07;1.07;;;16.00;99.90;;;;;;4994507;28;20420;-86
2023/09/22 02:06:21;;;;;;;3.30;1.27;;;16.00;99.90;;;;;;4992388;28;20525;-85
2023/09/22 02:09:07;;;;;;;1.60;0.87;;;16.00;99.90;;;;;;4992344;28;20514;-86
2023/09/22 02:11:54;;;;;;;2.13;1.10;;;16.00;99.90;;;;;;5009710;28;20485;-86
2023/09/22 02:14:40;;;;;;;3.30;1.17;;;15.80;99.90;;;;;;5007378;28;20454;-86
2023/09/22 02:17:26;;;;;;;4.33;1.20;;;15.80;99.90;;;;;;4999609;28;20453;-86
2023/09/22 02:20:17;;;;;;;3.60;1.20;;;15.80;99.90;;;;;;4987800;28;20567;-86
2023/09/22 02:23:03;;;;;;;7.80;1.60;;;15.90;99.90;;;;;;4990690;28;20428;-87
2023/09/22 02:25:49;;;;;;;2.00;0.90;;;15.80;99.90;;;;;;4993057;28;20415;-87
2023/09/22 02:28:37;;;;;;;2.73;1.00;;;15.90;99.90;;;;;;4989695;28;20505;-86
2023/09/22 02:31:23;;;;;;;3.20;1.00;;;16.00;99.90;;;;;;4991528;28;20493;-85
2023/09/22 02:34:09;;;;;;;4.87;1.10;;;16.00;99.90;;;;;;4994950;28;20612;-86
2023/09/22 02:36:55;;;;;;;3.33;1.43;;;15.80;99.90;;;;;;4989358;28;20822;-86
2023/09/22 02:39:41;;;;;;;5.70;1.70;;;15.80;99.90;;;;;;4993108;28;20564;-86
2023/09/22 02:42:28;;;;;;;1.83;0.87;;;15.70;99.90;;;;;;4997582;28;20496;-86
2023/09/22 02:45:15;;;;;;;5.23;1.00;;;15.60;99.90;;;;;;4991410;28;20503;-86
2023/09/22 02:48:00;;;;;;;2.50;1.40;;;15.70;99.90;;;;;;4982613;28;20420;-86
2023/09/22 02:50:46;;;;;;;4.37;1.10;;;15.60;99.90;;;;;;4990471;28;20980;-86
2023/09/22 02:53:32;;;;;;;2.60;1.20;;;15.60;99.90;;;;;;4993016;28;20465;-86
2023/09/22 02:56:18;;;;;;;3.40;1.10;;;15.40;99.90;;;;;;4997154;28;20420;-85
2023/09/22 02:59:04;;;;;;;3.73;1.37;;;15.40;99.90;;;;;;4999041;28;20568;-86
2023/09/22 03:01:50;;;;;;;3.97;1.63;;;15.40;99.90;;;;;;4998489;28;20447;-86
2023/09/22 03:04:36;;;;;;;3.43;1.30;;;15.40;99.90;;;;;;4995848;28;20497;-85
2023/09/22 03:07:22;;;;;;;3.73;1.43;;;15.40;99.90;;;;;;4993991;28;20594;-86
2023/09/22 03:10:10;;;;;;;2.47;1.10;;;15.50;99.90;;;;;;5003465;28;21027;-86
2023/09/22 03:12:56;;;;;;;2.43;1.27;;;15.60;99.90;;;;;;4997468;28;20464;-86
2023/09/22 03:15:41;;;;;;;4.50;1.67;;;15.60;99.90;;;;;;4996179;28;21083;-86
2023/09/22 03:18:28;;;;;;;2.13;1.10;;;15.50;99.90;;;;;;4994771;28;20854;-86
2023/09/22 03:21:19;;;;;;;2.80;1.10;;;15.50;99.90;;;;;;4992117;28;20436;-86
2023/09/22 03:24:06;;;;;;;2.57;1.10;;;15.50;99.90;;;;;;4994236;28;20459;-86
2023/09/22 03:26:52;;;;;;;4.40;1.40;;;15.40;99.90;;;;;;4994443;28;21055;-86
2023/09/22 03:29:37;;;;;;;3.30;1.20;;;15.50;99.90;;;;;;4998452;28;20474;-85
2023/09/22 03:32:23;;;;;;;2.07;1.07;;;15.60;99.90;;;;;;4992566;28;20468;-86
2023/09/22 03:35:11;;;;;;;4.10;1.20;;;15.60;99.90;;;;;;5002413;28;20440;-86
2023/09/22 03:37:58;;;;;;;8.13;1.53;;;15.50;99.90;;;;;;5000936;28;20494;-86
2023/09/22 03:40:43;;;;;;;4.17;1.40;;;15.40;99.90;;;;;;4994703;28;20438;-86
2023/09/22 03:43:29;;;;;;;4.13;1.50;;;15.30;99.90;;;;;;4999445;28;21423;-85
2023/09/22 03:46:15;;;;;;;3.30;1.20;;;15.30;99.90;;;;;;4993157;28;20564;-86
2023/09/22 03:49:03;;;;;;;2.73;1.50;;;15.30;99.90;;;;;;4991811;28;21234;-86
2023/09/22 03:51:50;;;;;;;4.67;1.73;;;15.30;99.90;;;;;;4990608;28;20474;-86
2023/09/22 03:54:36;;;;;;;7.50;1.40;;;15.30;99.90;;;;;;5002699;28;20461;-86
2023/09/22 03:57:22;;;;;;;2.33;1.23;;;15.40;99.90;;;;;;4988449;28;20938;-86
2023/09/22 04:00:17;;;;;;;5.57;1.63;;;15.10;99.90;;;;;;4994456;28;20535;-86
2023/09/22 04:03:03;;;;;;;3.10;1.20;;;15.20;99.90;;;;;;4999018;28;20443;-86
2023/09/22 04:05:49;;;;;;;2.00;1.23;;;15.20;99.90;;;;;;5002291;28;20821;-85
2023/09/22 04:08:36;;;;;;;3.50;1.47;;;15.20;99.90;;;;;;4999477;28;20433;-86
2023/09/22 04:11:21;;;;;;;6.33;1.30;;;15.20;99.90;;;;;;4992384;28;20584;-86
2023/09/22 04:14:08;;;;;;;2.30;1.03;;;15.30;99.90;;;;;;4992030;28;20497;-86
2023/09/22 04:16:54;;;;;;;9.90;1.80;;;15.30;99.90;;;;;;4992659;28;20541;-87
2023/09/22 04:19:40;;;;;;;3.67;1.30;;;15.40;99.90;;;;;;4990548;28;20440;-86
2023/09/22 04:22:28;;;;;;;4.50;1.30;;;15.40;99.90;;;;;;4992823;28;20479;-87
2023/09/22 04:25:19;;;;;;;8.43;1.50;;;15.40;99.90;;;;;;4997544;28;22816;-86
2023/09/22 04:28:11;;;;;;;3.77;1.20;;;15.40;99.90;;;;;;5000423;28;21023;-85
2023/09/22 04:31:00;;;;;;;5.30;1.20;;;15.40;99.90;;;;;;4989296;28;20957;-87
2023/09/22 04:33:46;;;;;;;4.57;1.30;;;15.50;99.90;;;;;;4999550;28;20454;-86
2023/09/22 04:36:32;;;;;;;8.33;3.20;;;15.50;99.90;;;;;;4997356;28;20433;-86
2023/09/22 04:39:21;;;;;;;4.07;1.30;;;15.50;99.90;;;;;;4991959;28;21079;-86
2023/09/22 04:42:08;;;;;;;4.33;1.30;;;15.50;99.90;;;;;;4997308;28;20780;-86
2023/09/22 04:44:54;;;;;;;2.40;1.40;;;15.50;99.90;;;;;;4994091;28;21106;-86
2023/09/22 04:47:40;;;;;;;4.60;1.60;;;15.40;99.90;;;;;;5001583;28;20458;-86
2023/09/22 04:50:26;;;;;;;7.23;2.00;;;15.40;99.90;;;;;;4993105;28;20947;-86
2023/09/22 04:53:11;;;;;;;3.00;1.93;;;15.40;99.90;;;;;;4996478;28;20477;-86
2023/09/22 04:56:01;;;;;;;3.70;1.63;;;15.50;99.90;;;;;;4997009;28;20564;-86
2023/09/22 04:58:51;;;;;;;5.00;2.00;;;15.50;99.90;;;;;;4992162;28;20486;-86
2023/09/22 05:01:37;;;;;;;3.43;1.60;;;15.50;99.90;;;;;;4994846;28;20450;-86
2023/09/22 05:04:23;;;;;;;3.07;1.50;;;15.60;99.90;;;;;;4990311;28;20451;-86
2023/09/22 05:07:09;;;;;;;4.97;1.50;;;15.60;99.90;;;;;;4992515;28;20815;-87
2023/09/22 05:09:55;;;;;;;6.63;2.00;;;15.60;99.90;;;;;;4996228;28;20451;-85
2023/09/22 05:12:40;;;;;;;3.80;2.30;;;15.40;99.90;;;;;;4992769;28;20604;-86
2023/09/22 05:15:29;;;;;;;5.57;2.20;;;15.40;99.90;;;;;;4996123;28;20907;-86
2023/09/22 05:18:14;;;;;;;4.20;1.93;;;15.40;99.90;;;;;;4995184;28;20506;-86
2023/09/22 05:21:02;;;;;;;3.17;2.03;;;15.50;99.90;;;;;;5004531;28;20961;-86
2023/09/22 05:23:48;;;;;;;5.77;2.00;;;15.40;99.90;;;;;;4994971;28;21073;-85
2023/09/22 05:26:34;;;;;;;2.77;1.63;;;15.50;99.90;;;;;;5002794;28;20457;-86
2023/09/22 05:29:20;;;;;;;4.17;1.80;;;15.60;99.90;;;;;;4986583;28;20812;-86
2023/09/22 05:32:07;;;;;;;7.53;1.93;;;15.70;99.90;;;;;;4993188;28;20477;-86
2023/09/22 05:34:53;;;;;;;7.73;2.17;;;15.70;99.90;;;;;;4993608;28;20983;-86
2023/09/22 05:37:38;;;;;;;5.27;2.50;;;15.70;99.90;;;;;;4996114;28;20450;-86
2023/09/22 05:40:26;;;;;;;5.63;1.77;;;15.80;99.90;;;;;;4994587;28;20499;-87
2023/09/22 05:43:12;;;;;;;3.10;1.53;;;15.80;99.90;;;;;;4990990;28;20986;-86
2023/09/22 05:45:57;;;;;;;6.70;1.53;;;15.50;99.90;;;;;;4994050;28;20441;-86
2023/09/22 05:48:46;;;;;;;2.27;1.27;;;15.50;99.90;;;;;;4996548;28;21062;-87
2023/09/22 05:51:32;;;;;;;3.50;1.60;;;15.60;99.90;;;;;;5005111;28;20435;-86
2023/09/22 05:54:17;;;;;;;4.43;1.60;;;15.60;99.90;;;;;;4989707;28;20818;-86
2023/09/22 05:57:03;;;;;;;2.20;1.20;;;15.60;99.90;;;;;;4998474;28;20503;-86
2023/09/22 05:59:50;;;;;;;6.63;1.70;;;15.70;99.90;;;;;;4994440;28;20956;-86
2023/09/22 06:02:36;;;;;;;2.90;1.40;;;15.70;99.90;;;;;;4985680;28;20446;-86
2023/09/22 06:05:23;;;;;;;3.03;1.47;;;15.80;99.90;;;;;;4999465;28;20466;-86
2023/09/22 06:08:09;;;;;;;2.80;1.30;;;15.80;99.90;;;;;;5001712;28;20420;-87
2023/09/22 06:10:55;;;;;;;6.00;1.60;;;15.60;99.90;;;;;;4998493;28;20455;-86
2023/09/22 06:13:42;;;;;;;4.03;1.60;;;15.60;99.90;;;;;;4994326;28;20493;-86
2023/09/22 06:16:28;;;;;;;4.23;1.37;;;15.70;99.90;;;;;;4992811;28;20442;-86
2023/09/22 06:19:13;;;;;;;4.00;1.23;;;15.70;99.90;;;;;;4994406;28;20485;-86
2023/09/22 06:22:00;;;;;;;2.30;1.30;;;15.80;99.90;;;;;;4995060;28;20456;-85
2023/09/22 06:24:47;;;;;;;2.20;1.10;;;15.90;99.90;;;;;;4989797;28;20453;-86
2023/09/22 06:27:32;;;;;;;2.30;1.23;;;15.90;99.90;;;;;;4992302;28;20651;-86
2023/09/22 06:30:18;;;;;;;5.23;1.27;;;16.00;99.90;;;;;;4993756;28;20469;-86
2023/09/22 06:33:04;;;;;;;2.50;1.10;;;15.90;99.90;;;;;;4997301;28;20448;-85
2023/09/22 06:35:57;;;;;;;2.70;1.47;;;15.80;99.90;;;;;;4991077;28;20429;-86
2023/09/22 06:38:44;;;;;;;3.67;1.17;;;15.80;99.90;;;;;;4998465;28;20558;-86
2023/09/22 06:41:30;;;;;;;2.47;1.50;;;15.80;99.90;;;;;;4994285;28;20421;-86
2023/09/22 06:44:16;;;;;;;7.90;1.30;;;15.90;99.90;;;;;;4989845;28;20487;-86
2023/09/22 06:47:03;;;;;;;4.27;1.33;;;15.80;99.90;;;;;;4999984;28;20455;-86
2023/09/22 06:49:48;;;;;;;3.87;1.20;;;15.90;99.90;;;;;;5004967;28;20443;-86
2023/09/22 06:52:34;;;;;;;3.07;1.40;;;16.00;99.90;;;;;;5006234;28;20509;-86
2023/09/22 06:55:21;;;;;;;4.47;1.03;;;16.00;99.90;;;;;;5004539;28;20449;-86
2023/09/22 06:58:07;;;;;;;5.83;1.43;;;16.10;99.90;;;;;;4988322;28;20832;-86
2023/09/22 07:00:52;;;;;;;4.30;1.20;;;16.10;99.90;;;;;;4992919;28;20793;-85
2023/09/22 07:03:38;;;;;;;2.60;1.20;;;16.00;99.90;;;;;;4991194;28;20813;-86
2023/09/22 07:06:24;;;;;;;6.40;2.30;;;16.00;99.90;;;;;;4992139;28;20486;-86
2023/09/22 07:09:11;;;;;;;4.50;1.40;;;16.00;99.90;;;;;;5000080;28;20464;-86
2023/09/22 07:11:58;;;;;;;5.10;1.30;;;16.00;99.90;;;;;;4997152;28;20930;-87
2023/09/22 07:14:44;;;;;;;3.30;1.20;;;16.10;99.90;;;;;;4995949;28;20951;-86
2023/09/22 07:17:31;;;;;;;1.93;1.10;;;16.10;99.90;;;;;;4998436;28;20441;-86
2023/09/22 07:20:16;;;;;;;3.03;1.40;;;16.10;99.90;;;;;;4987194;28;20557;-86
2023/09/22 07:23:02;;;;;;;4.63;1.30;;;16.10;99.90;;;;;;4995602;28;20522;-86
2023/09/22 07:25:59;;;;;;;4.60;1.53;;;16.10;99.90;;;;;;4990897;28;20445;-86
2023/09/22 07:28:46;;;;;;;3.07;1.17;;;16.10;99.90;;;;;;4997567;28;20469;-86
2023/09/22 07:31:32;;;;;;;3.40;0.90;;;16.20;99.90;;;;;;4992265;28;20429;-86
2023/09/22 07:34:18;;;;;;;6.10;1.83;;;16.20;99.90;;;;;;4996364;28;20455;-87
2023/09/22 07:37:03;;;;;;;4.77;1.90;;;16.20;99.90;;;;;;4995080;28;20544;-86
2023/09/22 07:39:49;;;;;;;3.20;1.50;;;16.20;99.90;;;;;;5002554;28;20464;-86
2023/09/22 07:42:35;;;;;;;3.20;1.67;;;16.10;99.90;;;;;;4998394;28;20544;-86
2023/09/22 07:45:22;;;;;;;3.90;1.70;;;16.00;99.90;;;;;;4995852;28;20521;-86
2023/09/22 07:48:08;;;;;;;4.43;1.77;;;15.90;99.90;;;;;;4999316;28;20935;-87
2023/09/22 07:50:53;;;;;;;4.17;1.77;;;16.00;99.90;;;;;;5001281;28;20446;-86
2023/09/22 07:53:39;;;;;;;6.33;1.93;;;15.90;99.90;;;;;;4993734;28;20475;-86
2023/09/22 07:56:25;;;;;;;7.07;1.50;;;15.90;99.90;;;;;;4993941;28;20445;-86
2023/09/22 07:59:11;;;;;;;2.80;1.20;;;16.00;99.90;;;;;;4997104;28;20469;-85
2023/09/22 08:01:59;;;;;;;2.27;1.00;;;15.90;99.90;;;;;;4999480;28;20441;-86
2023/09/22 08:04:44;;;;;;;3.13;1.10;;;16.00;99.90;;;;;;4997000;28;20433;-86
2023/09/22 08:07:30;;;;;;;2.97;1.23;;;16.00;99.90;;;;;;4997820;28;20515;-85
2023/09/22 08:10:17;;;;;;;10.77;1.77;;;16.10;99.90;;;;;;4997491;28;20481;-88
2023/09/22 08:13:02;;;;;;;3.23;1.20;;;16.20;99.90;;;;;;4992515;28;20474;-87
2023/09/22 08:15:48;;;;;;;2.63;1.17;;;16.30;99.90;;;;;;4990015;28;20429;-86
2023/09/22 08:18:37;;;;;;;1.60;0.80;;;16.50;99.90;;;;;;4992050;28;20542;-86
2023/09/22 08:21:25;;;;;;;6.13;1.40;;;16.60;99.90;;;;;;4990755;28;20458;-86
2023/09/22 08:24:11;;;;;;;2.13;1.07;;;16.70;99.90;;;;;;4993142;28;20585;-88
2023/09/22 08:26:59;;;;;;;2.50;0.90;;;16.60;99.90;;;;;;4995697;28;20421;-86
2023/09/22 08:29:47;;;;;;;2.37;1.20;;;16.60;99.90;;;;;;4989517;28;20452;-86
2023/09/22 08:32:32;;;;;;;3.50;1.10;;;16.60;99.90;;;;;;4985890;28;21014;-86
2023/09/22 08:35:20;;;;;;;3.60;1.10;;;16.60;99.90;;;;;;4993646;28;21036;-87
2023/09/22 08:38:05;;;;;;;3.80;1.00;;;16.70;99.90;;;;;;4997051;28;20400;-87
2023/09/22 08:40:52;;;;;;;2.27;1.00;;;16.80;99.90;;;;;;5004322;28;20863;-86
2023/09/22 08:43:38;;;;;;;2.90;1.00;;;16.80;99.90;;;;;;5000840;28;20426;-87
2023/09/22 08:46:24;;;;;;;3.03;1.00;;;16.90;99.90;;;;;;5000966;28;21031;-87
2023/09/22 08:49:10;;;;;;;2.97;0.80;;;16.80;99.90;;;;;;5006675;28;20432;-87
2023/09/22 08:51:59;;;;;;;5.80;1.23;;;16.70;99.90;;;;;;5002624;28;20554;-87
2023/09/22 08:54:47;;;;;;;6.70;1.33;;;16.60;99.90;;;;;;5006710;28;20404;-87
2023/09/22 08:57:32;;;;;;;2.67;1.20;;;16.50;99.90;;;;;;4997931;28;20519;-87
2023/09/22 09:00:20;;;;;;;7.00;1.10;;;16.50;99.90;;;;;;4998616;28;20478;-86
2023/09/22 09:03:09;;;;;;;4.13;1.13;;;16.50;99.90;;;;;;5008045;28;20448;-86
2023/09/22 09:06:06;;;;;;;4.13;1.23;;;16.50;99.90;;;;;;5002338;28;20421;-86
2023/09/22 09:09:09;;;;;;;2.90;1.37;;;16.50;99.90;;;;;;5009038;28;20822;-87
2023/09/22 09:12:02;;;;;;;2.00;1.00;;;16.70;99.90;;;;;;5001430;28;20416;-86
2023/09/22 09:14:49;;;;;;;3.40;1.60;;;16.90;99.90;;;;;;5000546;28;20410;-87
2023/09/22 09:17:35;;;;;;;3.23;1.30;;;17.10;99.90;;;;;;5001342;28;20519;-86
2023/09/22 09:20:21;;;;;;;3.40;1.40;;;17.10;99.90;;;;;;4995733;28;20560;-87
2023/09/22 09:23:15;;;;;;;4.90;1.23;;;17.00;99.90;;;;;;5000803;28;20573;-87
2023/09/22 09:26:02;;;;;;;7.77;1.30;;;17.10;99.90;;;;;;5002581;28;20459;-87
2023/09/22 09:28:48;;;;;;;3.80;1.17;;;17.20;99.90;;;;;;5001740;28;20429;-87
2023/09/22 09:31:46;;;;;;;3.00;1.20;;;17.30;99.90;;;;;;5004491;28;20501;-86
2023/09/22 09:34:41;;;;;;;3.40;1.30;;;17.20;99.90;;;;;;5009316;28;20827;-86
2023/09/22 09:37:27;;;;;;;5.47;2.20;;;17.40;99.90;;;;;;5003637;28;20510;-87
2023/09/22 09:40:12;;;;;;;4.53;1.00;;;17.30;99.90;;;;;;4998575;28;20424;-87
2023/09/22 09:43:01;;;;;;;3.20;1.60;;;17.50;99.90;;;;;;4998729;28;20840;-87
2023/09/22 09:45:48;;;;;;;2.73;0.97;;;17.80;99.90;;;;;;4997120;28;20472;-87
2023/09/22 09:48:38;;;;;;;3.97;1.10;;;17.90;99.90;;;;;;4999873;28;20938;-86
2023/09/22 09:51:24;;;;;;;4.20;1.67;;;18.00;99.90;;;;;;4999697;28;20432;-86
2023/09/22 09:54:14;;;;;;;4.10;1.53;;;17.90;99.90;;;;;;5005936;28;20463;-87
2023/09/22 09:57:00;;;;;;;4.13;1.57;;;18.10;99.90;;;;;;5002871;28;20955;-86
2023/09/22 09:59:48;;;;;;;6.37;1.00;;;17.90;99.90;;;;;;5003014;28;20425;-86
2023/09/22 10:02:34;;;;;;;4.07;1.40;;;18.00;99.90;;;;;;4996341;28;20584;-87
2023/09/22 10:05:22;;;;;;;7.83;1.50;;;18.20;99.90;;;;;;5002400;28;20433;-86
2023/09/22 10:08:08;;;;;;;3.63;1.23;;;18.10;99.90;;;;;;5006796;28;20492;-87
2023/09/22 10:10:57;;;;;;;4.80;1.40;;;18.30;99.90;;;;;;5003135;28;20508;-87
2023/09/22 10:13:44;;;;;;;4.93;1.20;;;18.50;99.90;;;;;;5004750;28;20470;-87
2023/09/22 10:16:31;;;;;;;6.73;1.40;;;18.70;99.90;;;;;;4997553;28;20859;-87
2023/09/22 10:19:17;;;;;;;3.27;1.10;;;18.90;99.90;;;;;;4998745;28;20954;-87
2023/09/22 10:22:12;;;;;;;1.90;0.87;;;19.10;99.90;;;;;;5006218;28;20441;-86
2023/09/22 10:25:22;;;;;;;2.30;0.97;;;18.90;99.90;;;;;;5006944;28;20438;-87
2023/09/22 10:28:10;;;;;;;4.10;1.20;;;18.80;99.90;;;;;;5001848;28;20418;-88
2023/09/22 10:31:05;;;;;;;3.77;1.03;;;18.80;99.90;;;;;;4994554;28;20437;-87
2023/09/22 10:33:52;;;;;;;8.30;1.40;;;18.80;99.90;;;;;;5006006;28;20442;-87
2023/09/22 10:36:46;;;;;;;6.40;1.50;;;18.90;99.90;;;;;;5002813;28;20921;-87
2023/09/22 10:39:50;;;;;;;3.60;1.10;;;19.20;99.90;;;;;;5001202;28;20451;-87
2023/09/22 10:42:43;;;;;;;2.33;1.10;;;19.30;99.90;;;;;;4994266;28;20403;-86
2023/09/22 10:45:29;;;;;;;1.87;0.93;;;19.50;99.90;;;;;;4995985;28;20432;-87
2023/09/22 10:48:15;;;;;;;3.83;0.90;;;19.50;99.90;;;;;;5007595;28;20426;-87
2023/09/22 10:51:03;;;;;;;2.23;1.00;;;19.60;99.90;;;;;;5006398;28;20427;-86
2023/09/22 10:53:59;;;;;;;2.00;1.00;;;19.40;99.90;;;;;;5002851;28;20454;-87
2023/09/22 10:56:44;;;;;;;3.00;1.07;;;19.40;99.90;;;;;;4999722;28;20927;-87
2023/09/22 10:59:33;;;;;;;4.83;1.30;;;19.50;99.90;;;;;;5007191;28;20480;-87
2023/09/22 11:02:23;;;;;;;1.93;1.00;;;19.30;99.90;;;;;;5002138;28;20467;-87
2023/09/22 11:05:12;;;;;;;2.17;0.93;;;19.40;99.90;;;;;;4995886;28;20426;-86
2023/09/22 11:07:58;;;;;;;2.50;1.03;;;19.50;99.90;;;;;;5004467;28;20578;-86
2023/09/22 11:10:48;;;;;;;4.20;1.40;;;19.50;99.90;;;;;;5004716;28;20458;-86
2023/09/22 11:13:34;;;;;;;3.10;1.27;;;19.60;99.90;;;;;;4998407;28;20531;-87
2023/09/22 11:16:20;;;;;;;3.03;0.80;;;19.60;99.90;;;;;;5001406;28;20440;-87
2023/09/22 11:19:08;;;;;;;4.53;0.80;;;19.40;99.90;;;;;;5000335;28;20468;-86
2023/09/22 11:21:59;;;;;;;2.53;1.20;;;19.40;99.90;;;;;;5004784;28;20969;-87
2023/09/22 11:24:47;;;;;;;5.07;1.40;;;19.50;99.90;;;;;;5003798;28;20548;-87
2023/09/22 11:27:33;;;;;;;3.10;1.20;;;19.50;99.90;;;;;;5006487;28;20432;-87
2023/09/22 11:30:25;;;;;;;2.10;0.83;;;19.50;99.90;;;;;;4995665;28;20467;-86
2023/09/22 11:33:16;;;;;;;5.40;1.10;;;19.50;98.20;;;;;;4997374;28;20465;-86
2023/09/22 11:36:03;;;;;;;4.77;1.30;;;19.60;99.10;;;;;;5007638;28;20410;-88
2023/09/22 11:38:54;;;;;;;3.70;1.20;;;19.50;95.60;;;;;;5008141;28;20456;-86
2023/09/22 11:41:41;;;;;;;3.27;0.90;;;19.30;92.80;;;;;;4992574;28;20415;-87
2023/09/22 11:44:27;;;;;;;3.73;1.33;;;19.10;94.50;;;;;;4993458;28;20430;-87
2023/09/22 11:47:22;;;;;;;2.73;1.00;;;19.10;98.20;;;;;;4991239;28;20427;-88
2023/09/22 11:50:08;;;;;;;2.23;0.90;;;19.20;99.80;;;;;;4995104;28;20525;-86
2023/09/22 11:53:08;;;;;;;2.57;1.00;;;19.40;97.90;;;;;;4999320;28;20560;-87
2023/09/22 11:55:55;;;;;;;2.33;0.80;;;19.30;90.90;;;;;;4997410;28;20422;-86
2023/09/22 11:58:42;;;;;;;1.80;0.87;;;19.30;81.00;;;;;;4990224;28;20533;-86
2023/09/22 12:01:28;;;;;;;2.47;0.90;;;19.40;90.00;;;;;;4990893;28;20427;-87
2023/09/22 12:04:14;;;;;;;2.47;0.77;;;19.60;88.50;;;;;;4991743;28;20452;-87
2023/09/22 12:07:01;;;;;;;1.97;0.70;;;19.60;79.70;;;;;;4994157;28;20475;-87
2023/09/22 12:09:46;;;;;;;5.47;0.73;;;19.90;88.50;;;;;;4995241;28;20450;-87
2023/09/22 12:12:32;;;;;;;2.63;0.87;;;19.90;72.60;;;;;;4995607;28;20811;-88
2023/09/22 12:15:19;;;;;;;2.20;0.60;;;20.00;79.90;;;;;;5000712;28;20821;-87
2023/09/22 12:18:06;;;;;;;2.30;0.67;;;20.00;77.80;;;;;;4999006;28;20585;-87
2023/09/22 12:20:51;;;;;;;2.00;0.80;;;19.60;78.10;;;;;;4990203;28;20464;-87
2023/09/22 12:23:37;;;;;;;2.50;0.90;;;19.60;82.60;;;;;;4991487;28;20531;-87
2023/09/22 12:26:23;;;;;;;2.20;1.00;;;19.60;82.20;;;;;;4996360;28;20445;-87
2023/09/22 12:29:09;;;;;;;5.23;0.90;;;19.70;89.50;;;;;;4993966;28;20892;-87
2023/09/22 12:31:55;;;;;;;1.80;0.70;;;19.80;86.70;;;;;;4997682;28;20456;-87
2023/09/22 12:34:41;;;;;;;2.50;1.10;;;19.60;84.20;;;;;;4991225;28;20473;-86
2023/09/22 12:37:27;;;;;;;2.00;0.90;;;19.20;85.60;;;;;;5000871;28;20483;-87
2023/09/22 12:40:13;;;;;;;3.90;1.20;;;19.30;94.90;;;;;;5001207;28;20459;-87
2023/09/22 12:42:58;;;;;;;2.63;1.10;;;19.10;88.50;;;;;;4993446;28;20936;-85
2023/09/22 12:45:44;;;;;;;5.27;1.33;;;19.10;90.50;;;;;;4991456;28;20492;-86
2023/09/22 12:48:31;;;;;;;2.60;0.70;;;19.10;91.90;;;;;;4993190;28;20512;-87
2023/09/22 12:51:17;;;;;;;3.70;1.00;;;19.10;92.90;;;;;;4998507;28;20518;-87
2023/09/22 12:54:02;;;;;;;2.07;1.03;;;18.90;92.40;;;;;;4995027;28;20464;-87
2023/09/22 12:56:48;;;;;;;2.87;0.90;;;19.30;95.80;;;;;;5001528;28;20516;-87
2023/09/22 12:59:34;;;;;;;3.47;1.20;;;19.80;94.30;;;;;;4987536;28;20459;-86
2023/09/22 13:02:19;;;;;;;6.30;1.20;;;20.10;89.20;;;;;;4988988;28;21154;-87
2023/09/22 13:05:08;;;;;;;4.03;0.90;;;20.50;85.10;;;;;;4988916;28;20443;-87
2023/09/22 13:07:54;;;;;;;1.70;0.70;;;20.50;80.70;;;;;;4988725;28;20431;-86
2023/09/22 13:10:41;;;;;;;4.33;1.27;;;20.70;73.30;;;;;;4988815;28;20607;-87
2023/09/22 13:13:26;;;;;;;3.43;1.00;;;21.10;77.10;;;;;;4988894;28;20445;-87
2023/09/22 13:16:12;;;;;;;4.40;1.20;;;21.40;68.10;;;;;;4992689;28;20466;-87
2023/09/22 13:18:58;;;;;;;3.30;1.23;;;21.80;66.90;;;;;;4999353;28;20477;-87
2023/09/22 13:21:49;;;;;;;3.73;1.30;;;22.10;64.60;;;;;;4999551;28;20461;-87
2023/09/22 13:24:35;;;;;;;3.80;1.00;;;22.30;43.40;;;;;;4998099;28;20420;-87
2023/09/22 13:27:20;;;;;;;6.77;1.10;;;22.10;38.10;;;;;;4992799;28;20449;-87
2023/09/22 13:30:07;;;;;;;2.30;0.90;;;21.70;41.10;;;;;;4986112;28;20492;-86
2023/09/22 13:32:53;;;;;;;1.83;0.67;;;22.00;41.70;;;;;;4996217;28;20460;-87
2023/09/22 13:35:39;;;;;;;2.30;1.10;;;22.00;37.10;;;;;;4993854;28;20456;-87
2023/09/22 13:38:27;;;;;;;3.23;1.20;;;22.30;40.00;;;;;;4998978;28;20696;-87
2023/09/22 13:41:12;;;;;;;4.17;0.83;;;22.50;36.50;;;;;;4999130;28;20600;-88
2023/09/22 13:43:58;;;;;;;8.30;1.30;;;22.50;34.20;;;;;;4998681;28;20928;-88
2023/09/22 13:46:45;;;;;;;4.93;0.70;;;22.80;32.90;;;;;;4995465;28;20536;-87
2023/09/22 13:49:31;;;;;;;2.37;0.90;;;22.80;28.60;;;;;;4993364;28;20472;-86
2023/09/22 13:52:16;;;;;;;2.90;0.80;;;22.60;26.70;;;;;;4989218;28;20501;-87
2023/09/22 13:55:06;;;;;;;3.30;1.27;;;22.80;28.70;;;;;;4988976;28;21083;-86
2023/09/22 13:57:52;;;;;;;3.30;2.00;;;22.70;28.10;;;;;;4986393;28;20506;-87
2023/09/22 14:00:38;;;;;;;2.50;1.00;;;22.70;28.20;;;;;;5002408;28;20501;-87
2023/09/22 14:03:24;;;;;;;5.63;1.27;;;22.70;27.70;;;;;;5004699;28;20429;-87
2023/09/22 14:06:13;;;;;;;3.20;1.20;;;22.50;27.60;;;;;;5000130;28;20672;-87
2023/09/22 14:08:58;;;;;;;3.83;1.10;;;22.60;28.90;;;;;;4988136;28;20473;-87
2023/09/22 14:11:47;;;;;;;3.20;1.20;;;22.80;31.00;;;;;;4989927;28;20545;-87
2023/09/22 14:14:33;;;;;;;3.23;1.23;;;23.20;30.50;;;;;;4998001;28;20452;-87
2023/09/22 14:17:19;;;;;;;2.90;0.97;;;23.20;27.00;;;;;;4989925;28;20441;-87
2023/09/22 14:20:06;;;;;;;1.93;0.80;;;22.90;26.40;;;;;;4996413;28;20461;-87
2023/09/22 14:22:53;;;;;;;3.60;0.90;;;22.40;27.00;;;;;;4993179;28;20456;-87
2023/09/22 14:25:39;;;;;;;5.20;1.57;;;22.40;29.00;;;;;;4991059;28;20423;-88
2023/09/22 14:28:27;;;;;;;2.97;1.00;;;21.90;29.70;;;;;;5000273;28;20451;-87
2023/09/22 14:31:16;;;;;;;3.70;1.53;;;21.80;32.20;;;;;;4993853;28;20440;-87